THY1525 LTBH-LTFM
Flight info
| Callsign | THY1525 |
|---|---|
| Flight time | 0h 30m |
| Altitude | 31000 |
| Route | OLDOK1L/04 OLDOK Y213 INBET |
| Aircraft | A320/M-SDE3FGHIRWY/LB1 |
Departure
| Time | 2026-05-06 19:52 |
|---|---|
| Airport | Çanakkale Airport (LTBH) |
Arrival
| Time | 2026-05-06 20:22 |
|---|---|
| Airport | İstanbul Airport (LTFM) |
| Time | Latitude | Longitude | Altitude | Speed | Heading |
|---|---|---|---|---|---|
| 2026-05-06 19:29 | 40.13906 | 26.42455 | 29 ft | 0 kts | 309° |
| 2026-05-06 19:43 | 40.13905 | 26.42457 | 29 ft | 2 kts | 309° |
| 2026-05-06 19:43 | 40.13890 | 26.42484 | 29 ft | 4 kts | 295° |
| 2026-05-06 19:43 | 40.13885 | 26.42512 | 29 ft | 4 kts | 234° |
| 2026-05-06 19:43 | 40.13890 | 26.42519 | 29 ft | 0 kts | 219° |
| 2026-05-06 19:47 | 40.13870 | 26.42498 | 29 ft | 9 kts | 220° |
| 2026-05-06 19:47 | 40.13807 | 26.42444 | 28 ft | 12 kts | 179° |
| 2026-05-06 19:47 | 40.13733 | 26.42536 | 27 ft | 18 kts | 131° |
| 2026-05-06 19:47 | 40.13646 | 26.42562 | 27 ft | 17 kts | 218° |
| 2026-05-06 19:48 | 40.13498 | 26.42391 | 26 ft | 36 kts | 221° |
| 2026-05-06 19:48 | 40.13297 | 26.42161 | 30 ft | 40 kts | 219° |
| 2026-05-06 19:48 | 40.13081 | 26.41922 | 27 ft | 42 kts | 220° |
| 2026-05-06 19:48 | 40.12909 | 26.41724 | 26 ft | 20 kts | 221° |
| 2026-05-06 19:49 | 40.12783 | 26.41666 | 24 ft | 21 kts | 202° |
| 2026-05-06 19:49 | 40.12723 | 26.41598 | 29 ft | 4 kts | 249° |
| 2026-05-06 19:49 | 40.12731 | 26.41554 | 27 ft | 6 kts | 302° |
| 2026-05-06 19:49 | 40.12766 | 26.41561 | 27 ft | 2 kts | 43° |
| 2026-05-06 19:51 | 40.12860 | 26.41672 | 28 ft | 59 kts | 41° |
| 2026-05-06 19:51 | 40.13378 | 26.42261 | 30 ft | 134 kts | 40° |
| 2026-05-06 19:51 | 40.14195 | 26.43206 | 318 ft | 164 kts | 42° |
| 2026-05-06 19:52 | 40.15061 | 26.44181 | 1145 ft | 165 kts | 40° |
| 2026-05-06 19:52 | 40.15947 | 26.45156 | 1944 ft | 169 kts | 40° |
| 2026-05-06 19:52 | 40.16887 | 26.46220 | 2456 ft | 189 kts | 40° |
| 2026-05-06 19:52 | 40.17937 | 26.47425 | 2895 ft | 213 kts | 40° |
| 2026-05-06 19:53 | 40.19109 | 26.48773 | 3485 ft | 233 kts | 40° |
| 2026-05-06 19:53 | 40.20340 | 26.50192 | 4524 ft | 237 kts | 41° |
| 2026-05-06 19:53 | 40.21394 | 26.51866 | 5608 ft | 241 kts | 59° |
| 2026-05-06 19:53 | 40.22036 | 26.53968 | 6408 ft | 263 kts | 77° |
| 2026-05-06 19:54 | 40.22256 | 26.56429 | 7216 ft | 277 kts | 83° |
| 2026-05-06 19:54 | 40.22444 | 26.58961 | 8273 ft | 282 kts | 81° |
| 2026-05-06 19:54 | 40.22644 | 26.61535 | 9381 ft | 285 kts | 80° |
| 2026-05-06 19:54 | 40.22848 | 26.64101 | 10308 ft | 295 kts | 80° |
| 2026-05-06 19:55 | 40.23079 | 26.66885 | 10780 ft | 319 kts | 80° |
| 2026-05-06 19:55 | 40.23328 | 26.69862 | 11276 ft | 337 kts | 80° |
| 2026-05-06 19:55 | 40.23578 | 26.72949 | 12074 ft | 345 kts | 81° |
| 2026-05-06 19:55 | 40.23824 | 26.76096 | 12928 ft | 350 kts | 81° |
| 2026-05-06 19:56 | 40.24071 | 26.79283 | 13716 ft | 355 kts | 81° |
| 2026-05-06 19:56 | 40.24319 | 26.82512 | 13986 ft | 357 kts | 81° |
| 2026-05-06 19:56 | 40.24568 | 26.85748 | 14063 ft | 358 kts | 82° |
| 2026-05-06 19:56 | 40.24578 | 26.89025 | 14083 ft | 362 kts | 91° |
| 2026-05-06 19:57 | 40.24138 | 26.92302 | 14472 ft | 369 kts | 98° |
| 2026-05-06 19:57 | 40.23609 | 26.95600 | 15276 ft | 372 kts | 98° |
| 2026-05-06 19:57 | 40.23355 | 26.98961 | 15950 ft | 372 kts | 83° |
| 2026-05-06 19:57 | 40.23889 | 27.02252 | 16644 ft | 370 kts | 64° |
| 2026-05-06 19:58 | 40.25156 | 27.05154 | 17318 ft | 368 kts | 50° |
| 2026-05-06 19:58 | 40.26666 | 27.07881 | 18035 ft | 373 kts | 50° |
| 2026-05-06 19:58 | 40.28209 | 27.10643 | 18710 ft | 378 kts | 50° |
| 2026-05-06 19:58 | 40.29766 | 27.13437 | 19385 ft | 382 kts | 50° |
| 2026-05-06 19:59 | 40.31314 | 27.16227 | 20077 ft | 385 kts | 50° |
| 2026-05-06 19:59 | 40.32891 | 27.19084 | 20830 ft | 386 kts | 49° |
| 2026-05-06 19:59 | 40.34471 | 27.21954 | 20926 ft | 390 kts | 50° |
| 2026-05-06 19:59 | 40.36054 | 27.24833 | 20665 ft | 388 kts | 50° |
| 2026-05-06 20:00 | 40.37625 | 27.27695 | 20420 ft | 386 kts | 50° |
| 2026-05-06 20:00 | 40.39194 | 27.30560 | 20176 ft | 385 kts | 50° |
| 2026-05-06 20:00 | 40.40755 | 27.33411 | 19933 ft | 384 kts | 50° |
| 2026-05-06 20:00 | 40.42317 | 27.36257 | 19687 ft | 383 kts | 50° |
| 2026-05-06 20:01 | 40.43870 | 27.39086 | 19447 ft | 382 kts | 50° |
| 2026-05-06 20:01 | 40.45423 | 27.41916 | 19214 ft | 380 kts | 50° |
| 2026-05-06 20:01 | 40.46963 | 27.44725 | 18975 ft | 379 kts | 50° |
| 2026-05-06 20:01 | 40.48494 | 27.47528 | 18756 ft | 377 kts | 50° |
| 2026-05-06 20:02 | 40.50017 | 27.50322 | 18529 ft | 375 kts | 50° |
| 2026-05-06 20:02 | 40.51531 | 27.53099 | 18290 ft | 373 kts | 50° |
| 2026-05-06 20:02 | 40.53020 | 27.55829 | 18018 ft | 371 kts | 50° |
| 2026-05-06 20:02 | 40.54523 | 27.58587 | 17754 ft | 370 kts | 50° |
| 2026-05-06 20:03 | 40.56018 | 27.61331 | 17489 ft | 369 kts | 50° |
| 2026-05-06 20:03 | 40.57505 | 27.64063 | 17229 ft | 367 kts | 50° |
| 2026-05-06 20:03 | 40.58989 | 27.66793 | 16955 ft | 366 kts | 51° |
| 2026-05-06 20:03 | 40.60465 | 27.69511 | 16707 ft | 364 kts | 51° |
| 2026-05-06 20:04 | 40.61933 | 27.72213 | 16441 ft | 363 kts | 51° |
| 2026-05-06 20:04 | 40.63393 | 27.74908 | 16196 ft | 361 kts | 51° |
| 2026-05-06 20:04 | 40.64848 | 27.77596 | 15874 ft | 358 kts | 51° |
| 2026-05-06 20:04 | 40.66283 | 27.80270 | 15413 ft | 355 kts | 51° |
| 2026-05-06 20:05 | 40.67707 | 27.82912 | 14810 ft | 353 kts | 51° |
| 2026-05-06 20:05 | 40.69127 | 27.85531 | 14217 ft | 350 kts | 51° |
| 2026-05-06 20:05 | 40.70538 | 27.88135 | 13591 ft | 347 kts | 51° |
| 2026-05-06 20:05 | 40.71932 | 27.90714 | 12985 ft | 343 kts | 51° |
| 2026-05-06 20:06 | 40.73306 | 27.93264 | 12390 ft | 339 kts | 51° |
| 2026-05-06 20:06 | 40.74667 | 27.95789 | 11779 ft | 337 kts | 51° |
| 2026-05-06 20:06 | 40.76023 | 27.98308 | 11146 ft | 336 kts | 51° |
| 2026-05-06 20:06 | 40.77371 | 28.00822 | 10573 ft | 333 kts | 51° |
| 2026-05-06 20:07 | 40.78682 | 28.03270 | 10414 ft | 319 kts | 51° |
| 2026-05-06 20:07 | 40.79931 | 28.05603 | 10294 ft | 305 kts | 51° |
| 2026-05-06 20:07 | 40.81131 | 28.07841 | 10183 ft | 293 kts | 51° |
| 2026-05-06 20:07 | 40.82286 | 28.10000 | 9980 ft | 285 kts | 51° |
| 2026-05-06 20:08 | 40.83035 | 28.11400 | 9891 ft | 280 kts | 51° |
| 2026-05-06 20:08 | 40.84164 | 28.13508 | 9741 ft | 282 kts | 51° |
| 2026-05-06 20:08 | 40.85665 | 28.16308 | 9056 ft | 279 kts | 51° |
| 2026-05-06 20:08 | 40.86775 | 28.18390 | 8565 ft | 276 kts | 51° |
| 2026-05-06 20:09 | 40.87524 | 28.19792 | 8242 ft | 275 kts | 51° |
| 2026-05-06 20:09 | 40.88621 | 28.21843 | 7758 ft | 273 kts | 51° |
| 2026-05-06 20:09 | 40.89703 | 28.23864 | 7285 ft | 271 kts | 51° |
| 2026-05-06 20:09 | 40.90787 | 28.25896 | 6803 ft | 270 kts | 51° |
| 2026-05-06 20:10 | 40.91864 | 28.27921 | 6321 ft | 269 kts | 51° |
| 2026-05-06 20:10 | 40.92937 | 28.29942 | 5841 ft | 269 kts | 51° |
| 2026-05-06 20:10 | 40.94011 | 28.31965 | 5340 ft | 269 kts | 51° |
| 2026-05-06 20:10 | 40.95081 | 28.33979 | 5004 ft | 264 kts | 51° |
| 2026-05-06 20:11 | 40.96110 | 28.35923 | 4971 ft | 251 kts | 52° |
| 2026-05-06 20:11 | 40.96810 | 28.37987 | 4987 ft | 247 kts | 76° |
| 2026-05-06 20:11 | 40.96755 | 28.40257 | 4986 ft | 251 kts | 104° |
| 2026-05-06 20:11 | 40.96014 | 28.42329 | 4986 ft | 245 kts | 117° |
| 2026-05-06 20:12 | 40.95600 | 28.44391 | 4987 ft | 223 kts | 82° |
| 2026-05-06 20:12 | 40.95822 | 28.46362 | 4994 ft | 223 kts | 78° |
| 2026-05-06 20:12 | 40.96035 | 28.48528 | 4996 ft | 244 kts | 80° |
| 2026-05-06 20:12 | 40.96211 | 28.50784 | 4998 ft | 248 kts | 81° |
| 2026-05-06 20:13 | 40.96367 | 28.53058 | 4997 ft | 248 kts | 82° |
| 2026-05-06 20:13 | 40.96511 | 28.55333 | 4999 ft | 248 kts | 82° |
| 2026-05-06 20:13 | 40.96649 | 28.57614 | 5002 ft | 248 kts | 82° |
| 2026-05-06 20:13 | 40.96785 | 28.59887 | 5004 ft | 248 kts | 82° |
| 2026-05-06 20:14 | 40.96924 | 28.62168 | 5004 ft | 248 kts | 82° |
| 2026-05-06 20:14 | 40.97064 | 28.64447 | 4935 ft | 250 kts | 82° |
| 2026-05-06 20:14 | 40.97206 | 28.66730 | 4684 ft | 247 kts | 83° |
| 2026-05-06 20:14 | 40.97342 | 28.68976 | 4620 ft | 240 kts | 82° |
| 2026-05-06 20:15 | 40.97538 | 28.71201 | 4950 ft | 247 kts | 70° |
| 2026-05-06 20:15 | 40.98447 | 28.73010 | 5004 ft | 234 kts | 31° |
| 2026-05-06 20:15 | 40.99911 | 28.73669 | 5006 ft | 221 kts | 0° |
| 2026-05-06 20:15 | 41.01373 | 28.73389 | 5003 ft | 201 kts | 345° |
| 2026-05-06 20:16 | 41.02722 | 28.73227 | 4879 ft | 195 kts | 355° |
| 2026-05-06 20:16 | 41.04068 | 28.73199 | 4658 ft | 192 kts | 356° |
| 2026-05-06 20:16 | 41.05399 | 28.73177 | 4401 ft | 191 kts | 356° |
| 2026-05-06 20:16 | 41.06719 | 28.73153 | 4154 ft | 189 kts | 356° |
| 2026-05-06 20:17 | 41.08038 | 28.73127 | 3897 ft | 189 kts | 356° |
| 2026-05-06 20:17 | 41.09352 | 28.73102 | 3632 ft | 189 kts | 357° |
| 2026-05-06 20:17 | 41.10672 | 28.73076 | 3402 ft | 190 kts | 357° |
| 2026-05-06 20:17 | 41.11997 | 28.73051 | 3141 ft | 190 kts | 357° |
| 2026-05-06 20:18 | 41.13317 | 28.73025 | 2897 ft | 187 kts | 358° |
| 2026-05-06 20:18 | 41.14589 | 28.73001 | 2649 ft | 178 kts | 358° |
| 2026-05-06 20:18 | 41.15783 | 28.72979 | 2410 ft | 166 kts | 358° |
| 2026-05-06 20:18 | 41.16895 | 28.72957 | 2208 ft | 150 kts | 358° |
| 2026-05-06 20:19 | 41.17883 | 28.72938 | 2004 ft | 137 kts | 358° |
| 2026-05-06 20:19 | 41.18820 | 28.72920 | 1823 ft | 133 kts | 359° |
| 2026-05-06 20:19 | 41.19734 | 28.72902 | 1645 ft | 130 kts | 359° |
| 2026-05-06 20:19 | 41.20635 | 28.72884 | 1469 ft | 129 kts | 359° |
| 2026-05-06 20:20 | 41.21527 | 28.72867 | 1294 ft | 128 kts | 359° |
| 2026-05-06 20:20 | 41.22409 | 28.72850 | 1117 ft | 126 kts | 360° |
| 2026-05-06 20:20 | 41.23285 | 28.72832 | 953 ft | 125 kts | 0° |
| 2026-05-06 20:20 | 41.24162 | 28.72818 | 823 ft | 126 kts | 1° |
| 2026-05-06 20:21 | 41.25033 | 28.72798 | 621 ft | 125 kts | 2° |
| 2026-05-06 20:21 | 41.25899 | 28.72782 | 451 ft | 125 kts | 2° |
| 2026-05-06 20:21 | 41.26751 | 28.72764 | 334 ft | 112 kts | 1° |
| 2026-05-06 20:21 | 41.27383 | 28.72752 | 332 ft | 66 kts | 359° |
| 2026-05-06 20:22 | 41.27674 | 28.72747 | 332 ft | 18 kts | 359° |
| 2026-05-06 20:22 | 41.27850 | 28.72745 | 334 ft | 38 kts | 0° |
| 2026-05-06 20:22 | 41.28069 | 28.72837 | 331 ft | 25 kts | 28° |
| 2026-05-06 20:22 | 41.28130 | 28.72935 | 332 ft | 16 kts | 120° |
| 2026-05-06 20:23 | 41.27992 | 28.72964 | 331 ft | 23 kts | 178° |
| 2026-05-06 20:23 | 41.27820 | 28.72969 | 333 ft | 27 kts | 179° |
| 2026-05-06 20:23 | 41.27620 | 28.72976 | 333 ft | 26 kts | 180° |
| 2026-05-06 20:23 | 41.27422 | 28.72976 | 330 ft | 30 kts | 178° |
| 2026-05-06 20:24 | 41.27230 | 28.72983 | 330 ft | 28 kts | 178° |
| 2026-05-06 20:24 | 41.27039 | 28.72987 | 331 ft | 28 kts | 179° |
| 2026-05-06 20:24 | 41.26954 | 28.73049 | 333 ft | 17 kts | 95° |
| 2026-05-06 20:24 | 41.26956 | 28.73247 | 334 ft | 24 kts | 88° |
| 2026-05-06 20:25 | 41.26959 | 28.73485 | 334 ft | 27 kts | 90° |
| 2026-05-06 20:25 | 41.26962 | 28.73748 | 334 ft | 28 kts | 89° |
| 2026-05-06 20:25 | 41.26966 | 28.74026 | 334 ft | 32 kts | 89° |
| 2026-05-06 20:25 | 41.26970 | 28.74301 | 334 ft | 29 kts | 89° |
| 2026-05-06 20:26 | 41.26973 | 28.74461 | 334 ft | 0 kts | 89° |
| 2026-05-06 20:26 | 41.26973 | 28.74489 | 334 ft | 15 kts | 90° |
| 2026-05-06 20:26 | 41.26976 | 28.74724 | 334 ft | 30 kts | 88° |
| 2026-05-06 20:26 | 41.26982 | 28.75004 | 331 ft | 25 kts | 91° |
| 2026-05-06 20:27 | 41.26944 | 28.75148 | 332 ft | 17 kts | 171° |
| 2026-05-06 20:27 | 41.26791 | 28.75149 | 333 ft | 26 kts | 179° |
| 2026-05-06 20:27 | 41.26615 | 28.75137 | 334 ft | 26 kts | 196° |
| 2026-05-06 20:27 | 41.26426 | 28.75061 | 330 ft | 30 kts | 197° |
| 2026-05-06 20:28 | 41.26262 | 28.74996 | 333 ft | 22 kts | 194° |
| 2026-05-06 20:28 | 41.26170 | 28.74998 | 332 ft | 4 kts | 175° |
| 2026-05-06 20:28 | 41.26143 | 28.74964 | 331 ft | 8 kts | 244° |
| 2026-05-06 20:28 | 41.26123 | 28.74887 | 331 ft | 4 kts | 252° |
| 2026-05-06 20:29 | 41.26122 | 28.74884 | 331 ft | 1 kts | 250° |
| 2026-05-06 20:29 | 41.26122 | 28.74883 | 331 ft | 0 kts | 250° |